createdAt,value
2018-06-08T00:01:09.842Z,9.73
2018-06-08T00:03:37.401Z,9.80
2018-06-08T00:06:04.995Z,9.73
2018-06-08T00:08:33.334Z,12.37
2018-06-08T00:11:00.903Z,9.93
2018-06-08T00:13:28.499Z,11.63
2018-06-08T00:15:56.842Z,10.50
2018-06-08T00:18:24.409Z,10.67
2018-06-08T00:20:52.021Z,10.10
2018-06-08T00:23:19.594Z,10.27
2018-06-08T00:25:47.160Z,10.03
2018-06-08T00:28:14.764Z,11.67
2018-06-08T00:30:42.363Z,11.77
2018-06-08T00:33:09.896Z,11.13
2018-06-08T00:35:37.505Z,12.03
2018-06-08T00:38:05.084Z,11.60
2018-06-08T00:40:32.654Z,11.57
2018-06-08T00:43:00.278Z,11.87
2018-06-08T00:45:27.859Z,13.65
2018-06-08T00:47:55.430Z,12.37
2018-06-08T00:50:23.034Z,11.83
2018-06-08T00:52:51.357Z,11.57
2018-06-08T00:55:18.932Z,11.57
2018-06-08T00:57:46.539Z,11.37
2018-06-08T01:00:14.876Z,10.73
2018-06-08T01:02:42.450Z,10.77
2018-06-08T01:05:10.077Z,10.67
2018-06-08T01:07:37.644Z,11.50
2018-06-08T01:10:05.213Z,10.47
2018-06-08T01:12:32.809Z,10.60
2018-06-08T01:15:00.378Z,10.50
2018-06-08T01:17:27.943Z,11.00
2018-06-08T01:19:56.317Z,11.33
2018-06-08T01:22:23.879Z,11.70
2018-06-08T01:24:52.216Z,11.57
2018-06-08T01:27:19.840Z,11.53
2018-06-08T01:29:47.416Z,10.93
2018-06-08T01:32:14.984Z,11.57
2018-06-08T01:34:42.587Z,11.40
2018-06-08T01:37:10.157Z,12.73
2018-06-08T01:39:37.724Z,12.70
2018-06-08T01:42:05.319Z,12.20
2018-06-08T01:44:32.884Z,13.37
2018-06-08T01:47:00.449Z,12.83
2018-06-08T01:49:28.552Z,13.50
2018-06-08T01:51:56.163Z,12.83
2018-06-08T01:54:23.684Z,14.43
2018-06-08T01:56:51.287Z,13.03
2018-06-08T01:59:18.850Z,13.73
2018-06-08T02:01:47.184Z,13.30
2018-06-08T02:04:14.782Z,13.17
2018-06-08T02:06:43.125Z,12.63
2018-06-08T02:09:10.692Z,12.97
2018-06-08T02:11:38.753Z,13.03
2018-06-08T02:14:06.359Z,14.93
2018-06-08T02:16:33.887Z,13.23
2018-06-08T02:19:01.491Z,12.97
2018-06-08T02:21:29.056Z,12.73
2018-06-08T02:23:57.422Z,12.83
2018-06-08T02:26:25.798Z,13.10
2018-06-08T02:28:54.137Z,11.77
2018-06-08T02:31:21.716Z,12.87
2018-06-08T02:33:49.769Z,15.77
2018-06-08T02:36:17.336Z,13.57
2018-06-08T02:38:44.899Z,14.90
2018-06-08T02:41:12.500Z,15.23
2018-06-08T02:43:40.838Z,16.00
2018-06-08T02:46:08.407Z,13.53
2018-06-08T02:48:36.000Z,13.33
2018-06-08T02:51:04.336Z,12.80
2018-06-08T02:53:31.918Z,13.00
2018-06-08T02:55:59.532Z,15.93
2018-06-08T02:58:27.297Z,12.70
2018-06-08T03:00:54.874Z,12.30
2018-06-08T03:03:22.468Z,12.23
2018-06-08T03:05:50.031Z,13.93
2018-06-08T03:08:17.603Z,13.50
2018-06-08T03:10:45.967Z,14.00
2018-06-08T03:13:13.546Z,15.80
2018-06-08T03:15:41.107Z,13.77
2018-06-08T03:18:09.499Z,14.83
2018-06-08T03:20:37.074Z,14.00
2018-06-08T03:23:04.639Z,13.87
2018-06-08T03:25:32.251Z,14.07
2018-06-08T03:27:59.826Z,13.60
2018-06-08T03:30:27.393Z,13.97
2018-06-08T03:32:55.763Z,15.27
2018-06-08T03:35:23.337Z,14.47
2018-06-08T03:37:51.673Z,14.80
2018-06-08T03:40:19.294Z,14.60
2018-06-08T03:42:46.868Z,14.40
2018-06-08T03:45:14.441Z,14.83
2018-06-08T03:47:42.915Z,14.17
2018-06-08T03:50:10.474Z,15.33
2018-06-08T03:52:38.036Z,14.40
2018-06-08T03:55:05.626Z,14.33
2018-06-08T03:57:33.194Z,15.83
2018-06-08T04:00:00.795Z,14.80
2018-06-08T04:02:28.958Z,14.77
2018-06-08T04:04:56.496Z,14.90
2018-06-08T04:07:24.060Z,14.70
2018-06-08T04:09:51.662Z,14.30
2018-06-08T04:12:19.231Z,14.77
2018-06-08T04:14:46.798Z,15.23
2018-06-08T04:17:14.413Z,14.37
2018-06-08T04:19:41.977Z,15.00
2018-06-08T04:22:09.545Z,17.55
2018-06-08T04:24:37.177Z,15.60
2018-06-08T04:27:04.743Z,14.57
2018-06-08T04:29:32.312Z,14.33
2018-06-08T04:31:59.912Z,15.17
2018-06-08T04:34:28.245Z,15.00
2018-06-08T04:36:55.821Z,15.17
2018-06-08T04:39:23.426Z,14.23
2018-06-08T04:41:50.995Z,14.80
2018-06-08T04:44:18.589Z,15.20
2018-06-08T04:46:46.176Z,15.87
2018-06-08T04:49:13.754Z,15.20
2018-06-08T04:51:42.132Z,15.17
2018-06-08T04:54:09.697Z,16.73
2018-06-08T04:56:38.048Z,15.83
2018-06-08T04:59:05.598Z,16.60
2018-06-08T05:01:33.215Z,16.23
2018-06-08T05:04:00.786Z,17.07
2018-06-08T05:06:28.446Z,17.57
2018-06-08T05:08:56.325Z,17.47
2018-06-08T05:11:23.898Z,19.03
2018-06-08T05:13:51.460Z,17.70
2018-06-08T05:16:19.067Z,17.20
2018-06-08T05:18:46.634Z,19.43
2018-06-08T05:21:14.967Z,20.27
2018-06-08T05:23:42.580Z,19.77
2018-06-08T05:26:10.957Z,19.30
2018-06-08T05:28:38.489Z,19.17
2018-06-08T05:31:06.437Z,19.30
2018-06-08T05:33:34.027Z,21.27
2018-06-08T05:36:01.609Z,19.00
2018-06-08T05:38:29.208Z,22.83
2018-06-08T05:40:56.772Z,19.97
2018-06-08T05:43:24.352Z,19.33
2018-06-08T05:45:51.969Z,19.87
2018-06-08T05:48:19.617Z,21.42
2018-06-08T05:50:47.130Z,19.93
2018-06-08T05:53:14.723Z,18.83
2018-06-08T05:55:42.307Z,19.43
2018-06-08T05:58:10.641Z,19.83
2018-06-08T06:00:38.243Z,18.17
2018-06-08T06:03:05.826Z,21.87
2018-06-08T06:05:33.466Z,18.70
2018-06-08T06:08:01.062Z,18.20
2018-06-08T06:10:28.641Z,19.58
2018-06-08T06:12:56.217Z,18.00
2018-06-08T06:15:23.817Z,17.47
2018-06-08T06:17:51.392Z,16.73
2018-06-08T06:20:19.114Z,17.33
2018-06-08T06:22:46.569Z,16.80
2018-06-08T06:25:14.136Z,17.43
2018-06-08T06:27:41.718Z,17.10
2018-06-08T06:30:10.101Z,15.23
2018-06-08T06:32:38.469Z,16.80
2018-06-08T06:35:06.801Z,14.53
2018-06-08T06:37:34.429Z,17.00
2018-06-08T06:40:02.015Z,15.53
2018-06-08T06:42:29.578Z,14.77
2018-06-08T06:44:58.658Z,15.40
2018-06-08T06:47:26.182Z,16.07
2018-06-08T06:49:53.752Z,18.00
2018-06-08T06:52:21.389Z,17.37
2018-06-08T06:54:48.958Z,15.23
2018-06-08T06:57:16.527Z,15.33
2018-06-08T06:59:44.148Z,17.13
2018-06-08T07:02:11.758Z,17.37
2018-06-08T07:04:39.332Z,16.30
2018-06-08T07:07:06.988Z,15.50
2018-06-08T07:09:34.573Z,16.77
2018-06-08T07:12:02.148Z,17.07
2018-06-08T07:14:29.805Z,17.20
2018-06-08T07:16:57.381Z,16.47
2018-06-08T07:19:25.070Z,17.87
2018-06-08T07:21:52.688Z,16.77
2018-06-08T07:24:20.264Z,17.70
2018-06-08T07:26:47.839Z,15.87
2018-06-08T07:29:15.478Z,15.80
2018-06-08T07:31:43.078Z,16.97
2018-06-08T07:34:10.634Z,16.20
2018-06-08T07:36:38.702Z,16.57
2018-06-08T07:39:06.281Z,19.27
2018-06-08T07:41:33.851Z,17.30
2018-06-08T07:44:01.502Z,20.23
2018-06-08T07:46:29.093Z,18.13
2018-06-08T07:48:57.434Z,18.03
2018-06-08T07:51:25.058Z,17.87
2018-06-08T07:53:52.632Z,19.13
2018-06-08T07:56:20.439Z,18.93
2018-06-08T07:58:48.055Z,19.70
2018-06-08T08:01:15.767Z,19.47
2018-06-08T08:03:43.253Z,20.20
2018-06-08T08:06:14.194Z,20.47
2018-06-08T08:08:41.741Z,19.80
2018-06-08T08:11:10.093Z,21.63
2018-06-08T08:13:38.975Z,21.83
2018-06-08T08:16:06.570Z,21.10
2018-06-08T08:18:34.136Z,21.87
2018-06-08T08:21:02.538Z,21.43
2018-06-08T08:23:30.104Z,22.83
2018-06-08T08:25:59.047Z,23.10
2018-06-08T08:28:26.678Z,22.37
2018-06-08T08:30:54.283Z,22.63
2018-06-08T08:33:21.842Z,23.67
2018-06-08T08:35:49.815Z,23.37
2018-06-08T08:38:17.374Z,24.47
2018-06-08T08:40:44.941Z,27.35
2018-06-08T08:43:12.593Z,27.08
2018-06-08T08:45:40.193Z,22.67
2018-06-08T08:48:07.711Z,22.53
2018-06-08T08:50:35.335Z,26.80
2018-06-08T08:53:02.892Z,22.20
2018-06-08T08:55:30.457Z,24.47
2018-06-08T08:57:58.562Z,23.40
2018-06-08T09:00:26.225Z,23.50
2018-06-08T09:02:53.751Z,25.40
2018-06-08T09:05:22.267Z,26.20
2018-06-08T09:07:49.824Z,25.37
2018-06-08T09:10:17.390Z,24.43
2018-06-08T09:12:44.997Z,28.52
2018-06-08T09:15:13.326Z,26.90
2018-06-08T09:17:40.898Z,25.40
2018-06-08T09:20:09.384Z,25.37
2018-06-08T09:22:36.937Z,26.00
2018-06-08T09:25:04.508Z,26.87
2018-06-08T09:27:33.278Z,27.27
2018-06-08T09:30:00.845Z,26.73
2018-06-08T09:32:28.458Z,27.03
2018-06-08T09:34:56.578Z,29.17
2018-06-08T09:37:24.138Z,27.13
2018-06-08T09:39:51.749Z,28.30
2018-06-08T09:42:19.314Z,27.53
2018-06-08T09:44:46.883Z,27.30
2018-06-08T09:47:14.437Z,27.07
2018-06-08T09:49:42.834Z,27.30
2018-06-08T09:52:10.343Z,25.30
2018-06-08T09:54:37.904Z,26.17
2018-06-08T09:57:05.517Z,24.23
2018-06-08T09:59:33.082Z,29.50
2018-06-08T10:02:00.648Z,25.80
2018-06-08T10:04:28.800Z,25.10
2018-06-08T10:06:56.363Z,23.80
2018-06-08T10:09:23.930Z,19.67
2018-06-08T10:11:51.549Z,20.93
2018-06-08T10:14:19.108Z,22.93
2018-06-08T10:16:46.672Z,23.40
2018-06-08T10:19:14.282Z,22.00
2018-06-08T10:21:41.842Z,19.87
2018-06-08T10:24:09.544Z,19.53
2018-06-08T10:26:37.207Z,21.43
2018-06-08T10:29:04.764Z,21.70
2018-06-08T10:31:32.335Z,26.92
2018-06-08T10:33:59.949Z,24.83
2018-06-08T10:36:27.508Z,25.73
2018-06-08T10:38:55.070Z,26.33
2018-06-08T10:41:22.693Z,24.67
2018-06-08T10:43:50.254Z,24.30
2018-06-08T10:46:17.816Z,24.70
2018-06-08T10:48:45.466Z,24.20
2018-06-08T10:51:13.030Z,25.23
2018-06-08T10:53:40.595Z,26.95
2018-06-08T10:56:08.823Z,22.77
2018-06-08T10:58:36.390Z,22.20
2018-06-08T11:01:03.957Z,21.70
2018-06-08T11:03:31.593Z,26.57
2018-06-08T11:05:59.157Z,26.43
2018-06-08T11:08:26.721Z,24.00
2018-06-08T11:10:54.727Z,22.63
2018-06-08T11:13:22.289Z,23.53
2018-06-08T11:15:49.853Z,23.53
2018-06-08T11:18:18.123Z,22.13
2018-06-08T11:20:45.688Z,23.07
2018-06-08T11:23:13.260Z,22.37
2018-06-08T11:25:41.256Z,22.10
2018-06-08T11:28:08.813Z,23.83
2018-06-08T11:30:36.377Z,22.90
2018-06-08T11:33:04.761Z,21.83
2018-06-08T11:35:33.084Z,20.23
2018-06-08T11:38:00.649Z,18.60
2018-06-08T11:40:28.315Z,18.10
2018-06-08T11:42:55.878Z,16.40
2018-06-08T11:45:23.472Z,15.80
2018-06-08T11:47:51.730Z,18.03
2018-06-08T11:50:19.290Z,16.37
2018-06-08T11:52:46.853Z,17.93
2018-06-08T11:55:14.462Z,15.77
2018-06-08T11:57:42.791Z,16.70
2018-06-08T12:00:10.387Z,18.73
2018-06-08T12:02:37.994Z,18.77
2018-06-08T12:05:05.549Z,14.83
2018-06-08T12:07:33.116Z,14.10
2018-06-08T12:10:00.759Z,16.37
2018-06-08T12:12:29.055Z,17.67
2018-06-08T12:14:56.613Z,15.40
2018-06-08T12:17:24.238Z,14.57
2018-06-08T12:19:51.801Z,13.00
2018-06-08T12:22:20.127Z,13.33
2018-06-08T12:24:51.597Z,11.63
2018-06-08T12:27:19.203Z,13.57
2018-06-08T12:29:46.820Z,13.83
2018-06-08T12:32:14.440Z,10.97
2018-06-08T12:34:42.009Z,13.40
2018-06-08T12:37:09.574Z,13.50
2018-06-08T12:39:37.222Z,12.27
2018-06-08T12:42:04.782Z,13.23
2018-06-08T12:44:32.342Z,13.10
2018-06-08T12:47:00.001Z,12.77
2018-06-08T12:49:28.340Z,11.87
2018-06-08T12:51:55.909Z,13.13
2018-06-08T12:54:23.508Z,14.87
2018-06-08T12:56:51.099Z,14.13
2018-06-08T12:59:18.665Z,14.47
2018-06-08T13:01:46.277Z,13.53
2018-06-08T13:04:14.126Z,13.37
2018-06-08T13:06:41.647Z,13.20
2018-06-08T13:09:09.880Z,13.20
2018-06-08T13:11:38.413Z,13.47
2018-06-08T13:14:05.958Z,14.53
2018-06-08T13:16:34.007Z,14.83
2018-06-08T13:19:02.341Z,14.03
2018-06-08T13:21:29.947Z,15.27
2018-06-08T13:23:57.532Z,14.70
2018-06-08T13:26:25.095Z,13.17
2018-06-08T13:28:52.656Z,12.73
2018-06-08T13:31:20.267Z,13.77
2018-06-08T13:33:47.828Z,13.67
2018-06-08T13:36:15.391Z,14.27
2018-06-08T13:38:43.002Z,17.80
2018-06-08T13:41:10.564Z,15.97
2018-06-08T13:43:38.133Z,16.57
2018-06-08T13:46:06.325Z,17.20
2018-06-08T13:48:33.909Z,18.00
2018-06-08T13:51:01.505Z,19.05
2018-06-08T13:53:29.112Z,18.07
2018-06-08T13:55:56.680Z,18.00
2018-06-08T13:58:24.252Z,20.83
2018-06-08T14:00:51.898Z,20.17
2018-06-08T14:03:19.468Z,20.63
2018-06-08T14:05:47.034Z,18.43
2018-06-08T14:08:14.689Z,20.27
2018-06-08T14:10:42.283Z,19.83
2018-06-08T14:13:09.816Z,19.23
2018-06-08T14:15:37.428Z,20.40
2018-06-08T14:18:04.985Z,20.40
2018-06-08T14:20:32.558Z,19.63
2018-06-08T14:23:02.211Z,18.63
2018-06-08T14:25:29.770Z,20.27
2018-06-08T14:27:57.346Z,21.25
2018-06-08T14:30:26.153Z,19.80
2018-06-08T14:32:54.476Z,18.27
2018-06-08T14:35:22.041Z,18.95
2018-06-08T14:37:49.684Z,17.47
2018-06-08T14:40:17.243Z,17.07
2018-06-08T14:42:44.823Z,15.93
2018-06-08T14:45:12.474Z,15.47
2018-06-08T14:47:40.040Z,15.47
2018-06-08T14:50:07.590Z,14.87
2018-06-08T14:52:35.205Z,16.50
2018-06-08T14:55:02.763Z,17.53
2018-06-08T14:57:30.327Z,19.33
2018-06-08T14:59:58.577Z,20.92
2018-06-08T15:02:26.140Z,17.70
2018-06-08T15:04:53.704Z,16.20
2018-06-08T15:07:21.313Z,15.67
2018-06-08T15:09:48.875Z,14.97
2018-06-08T15:12:16.431Z,12.37
2018-06-08T15:14:44.610Z,12.77
2018-06-08T15:17:12.164Z,14.10
2018-06-08T15:19:39.729Z,15.87
2018-06-08T15:22:09.089Z,16.97
2018-06-08T15:24:36.666Z,17.93
2018-06-08T15:27:04.227Z,18.00
2018-06-08T15:29:31.847Z,19.53
2018-06-08T15:31:59.404Z,21.42
2018-06-08T15:34:26.966Z,18.47
2018-06-08T15:36:54.584Z,18.50
2018-06-08T15:39:22.152Z,19.77
2018-06-08T15:41:50.471Z,19.93
2018-06-08T15:44:18.575Z,20.27
2018-06-08T15:46:46.157Z,20.10
2018-06-08T15:49:13.711Z,20.57
2018-06-08T15:51:41.322Z,20.63
2018-06-08T15:54:08.881Z,19.73
2018-06-08T15:59:09.357Z,22.10
2018-06-08T16:01:36.918Z,25.30
2018-06-08T16:04:04.483Z,22.67
2018-06-08T16:06:32.552Z,23.27
2018-06-08T16:09:00.121Z,23.60
2018-06-08T16:11:27.838Z,23.27
2018-06-08T16:13:55.455Z,23.40
2018-06-08T16:16:23.027Z,24.07
2018-06-08T16:18:50.584Z,22.70
2018-06-08T16:21:18.841Z,21.73
2018-06-08T16:23:46.398Z,20.30
2018-06-08T16:26:16.337Z,20.07
2018-06-08T16:28:43.919Z,19.13
2018-06-08T16:31:12.251Z,18.63
2018-06-08T16:33:39.810Z,19.27
2018-06-08T16:36:07.472Z,19.30
2018-06-08T16:38:35.736Z,19.97
2018-06-08T16:41:03.293Z,18.93
2018-06-08T16:43:31.458Z,18.77
2018-06-08T16:45:59.017Z,19.10
2018-06-08T16:48:26.587Z,18.67
2018-06-08T16:50:54.216Z,18.40
2018-06-08T16:53:21.766Z,19.47
2018-06-08T16:55:49.331Z,22.17
2018-06-08T16:58:17.371Z,20.93
2018-06-08T17:00:44.932Z,20.37
2018-06-08T17:03:12.490Z,21.20
2018-06-08T17:05:40.097Z,19.73
2018-06-08T17:08:08.430Z,21.10
2018-06-08T17:10:35.991Z,20.67
2018-06-08T17:13:03.588Z,19.80
2018-06-08T17:15:31.153Z,19.13
2018-06-08T17:17:59.500Z,19.97
2018-06-08T17:20:27.101Z,19.40
2018-06-08T17:22:55.429Z,19.30
2018-06-08T17:25:22.985Z,18.33
2018-06-08T17:27:50.602Z,18.70
2018-06-08T17:30:18.931Z,19.20
2018-06-08T17:32:46.489Z,18.13
2018-06-08T17:35:14.106Z,19.23
2018-06-08T17:37:42.429Z,18.63
2018-06-08T17:40:09.990Z,19.90
2018-06-08T17:42:37.618Z,19.77
2018-06-08T17:45:05.175Z,20.03
2018-06-08T17:47:33.511Z,18.80
2018-06-08T17:50:01.156Z,19.70
2018-06-08T17:52:28.712Z,21.33
2018-06-08T17:54:56.284Z,19.50
2018-06-08T17:57:23.919Z,20.80
2018-06-08T17:59:51.479Z,20.27
2018-06-08T18:02:19.044Z,20.47
2018-06-08T18:04:46.667Z,19.80
2018-06-08T18:07:14.228Z,19.60
2018-06-08T18:09:41.794Z,22.42
2018-06-08T18:12:09.788Z,20.57
2018-06-08T18:14:37.348Z,19.47
2018-06-08T18:17:04.936Z,19.43
2018-06-08T18:19:32.586Z,19.93
2018-06-08T18:22:00.160Z,19.60
2018-06-08T18:24:27.718Z,19.10
2018-06-08T18:26:55.358Z,19.87
2018-06-08T18:29:23.712Z,19.57
2018-06-08T18:31:51.284Z,22.77
2018-06-08T18:34:18.899Z,23.05
2018-06-08T18:36:46.464Z,21.27
2018-06-08T18:39:14.036Z,20.93
2018-06-08T18:41:41.665Z,20.93
2018-06-08T18:44:09.241Z,22.60
2018-06-08T18:46:36.798Z,20.67
2018-06-08T18:49:04.410Z,21.57
2018-06-08T18:51:31.979Z,20.77
2018-06-08T18:54:00.309Z,21.87
2018-06-08T18:56:27.953Z,22.93
2018-06-08T18:58:55.523Z,21.50
2018-06-08T19:01:23.091Z,21.53
2018-06-08T19:03:51.278Z,22.73
2018-06-08T19:06:18.850Z,23.00
2018-06-08T19:08:46.418Z,25.58
2018-06-08T19:11:14.041Z,24.77
2018-06-08T19:13:41.600Z,21.43
2018-06-08T19:16:09.165Z,22.07
2018-06-08T19:18:36.778Z,20.60
2018-06-08T19:21:04.349Z,21.57
2018-06-08T19:23:32.175Z,21.13
2018-06-08T19:25:59.813Z,21.03
2018-06-08T19:28:27.372Z,20.60
2018-06-08T19:30:54.925Z,21.57
2018-06-08T19:33:23.953Z,22.03
2018-06-08T19:35:51.516Z,22.57
2018-06-08T19:38:19.103Z,28.52
2018-06-08T19:40:46.693Z,29.40
2018-06-08T19:43:14.254Z,26.13
2018-06-08T19:45:41.830Z,25.23
2018-06-08T19:48:09.424Z,25.73
2018-06-08T19:50:36.985Z,26.87
2018-06-08T19:53:04.558Z,25.70
2018-06-08T19:55:32.715Z,26.17
2018-06-08T19:58:00.285Z,27.33
2018-06-08T20:00:27.849Z,28.10
2018-06-08T20:02:55.454Z,28.27
2018-06-08T20:05:23.020Z,25.33
2018-06-08T20:07:50.577Z,29.00
2018-06-08T20:10:18.701Z,28.60
2018-06-08T20:12:46.269Z,27.90
2018-06-08T20:15:13.823Z,34.28
2018-06-08T20:17:41.441Z,29.93
2018-06-08T20:20:09.009Z,30.40
2018-06-08T20:22:36.570Z,31.93
2018-06-08T20:25:04.182Z,31.17
2018-06-08T20:27:31.772Z,31.20
2018-06-08T20:30:00.107Z,36.70
2018-06-08T20:32:27.708Z,31.47
2018-06-08T20:34:56.036Z,31.80
2018-06-08T20:37:23.592Z,31.00
2018-06-08T20:39:51.199Z,31.47
2018-06-08T20:42:18.793Z,33.30
2018-06-08T20:44:46.316Z,34.97
2018-06-08T20:47:13.962Z,34.60
2018-06-08T20:49:41.519Z,33.67
2018-06-08T20:52:09.083Z,33.70
2018-06-08T20:54:36.699Z,36.20
2018-06-08T20:57:04.254Z,36.77
2018-06-08T20:59:32.583Z,34.60
2018-06-08T21:02:00.262Z,34.87
2018-06-08T21:04:27.751Z,35.10
2018-06-08T21:06:55.312Z,35.53
2018-06-08T21:09:22.927Z,35.23
2018-06-08T21:11:50.496Z,34.50
2018-06-08T21:14:18.412Z,42.00
2018-06-08T21:16:45.958Z,36.70
2018-06-08T21:19:14.312Z,36.37
2018-06-08T21:21:41.877Z,36.87
2018-06-08T21:24:09.500Z,35.13
2018-06-08T21:26:37.060Z,34.77
2018-06-08T21:29:07.420Z,35.20
2018-06-08T21:31:35.005Z,35.33
2018-06-08T21:34:03.382Z,34.77
2018-06-08T21:36:30.896Z,35.63
2018-06-08T21:38:58.503Z,34.77
2018-06-08T21:41:26.847Z,33.80
2018-06-08T21:43:54.397Z,35.20
2018-06-08T21:46:22.000Z,35.73
2018-06-08T21:48:49.559Z,35.07
2018-06-08T21:51:17.118Z,33.13
2018-06-08T21:53:44.731Z,33.80
2018-06-08T21:56:12.294Z,34.43
2018-06-08T21:58:39.867Z,34.70
2018-06-08T22:01:07.477Z,36.03
2018-06-08T22:03:35.812Z,36.00
2018-06-08T22:06:03.376Z,34.97
2018-06-08T22:08:30.974Z,34.27
2018-06-08T22:10:58.539Z,33.70
2018-06-08T22:13:26.877Z,35.53
2018-06-08T22:15:54.473Z,35.60
2018-06-08T22:18:22.802Z,36.37
2018-06-08T22:20:52.822Z,33.23
2018-06-08T22:23:20.948Z,33.07
2018-06-08T22:25:49.284Z,34.33
2018-06-08T22:28:16.851Z,33.30
2018-06-08T22:30:44.458Z,33.10
2018-06-08T22:33:12.791Z,34.03
2018-06-08T22:35:40.353Z,34.93
2018-06-08T22:38:07.967Z,35.00
2018-06-08T22:40:35.509Z,34.70
2018-06-08T22:43:03.088Z,34.97
2018-06-08T22:45:30.720Z,35.87
2018-06-08T22:47:58.278Z,35.70
2018-06-08T22:50:25.843Z,45.78
2018-06-08T22:52:53.436Z,45.38
2018-06-08T22:55:21.005Z,39.07
2018-06-08T22:57:48.560Z,39.20
2018-06-08T23:00:16.159Z,37.67
2018-06-08T23:02:43.723Z,36.53
2018-06-08T23:05:11.287Z,37.93
2018-06-08T23:07:39.361Z,37.20
2018-06-08T23:10:06.930Z,38.87
2018-06-08T23:12:34.530Z,37.53
2018-06-08T23:15:02.091Z,38.90
2018-06-08T23:17:29.647Z,38.43
2018-06-08T23:19:57.972Z,37.73
2018-06-08T23:22:25.568Z,38.70
2018-06-08T23:24:53.133Z,38.10
2018-06-08T23:27:20.693Z,38.53
2018-06-08T23:29:48.677Z,36.23
2018-06-08T23:32:16.239Z,36.87
2018-06-08T23:34:44.566Z,34.63
2018-06-08T23:37:12.168Z,36.07
2018-06-08T23:39:39.728Z,35.60
2018-06-08T23:42:07.293Z,45.92
2018-06-08T23:44:34.894Z,40.17
2018-06-08T23:47:02.448Z,39.87
2018-06-08T23:49:30.008Z,40.53
2018-06-08T23:51:57.918Z,39.60
2018-06-08T23:54:25.478Z,40.40
2018-06-08T23:56:53.039Z,41.90
2018-06-08T23:59:20.641Z,41.77
